Thunder radar more information blitzortung!


Radar de pluja more information rain snow radar


Visita la nostra xarxa de llocs de meteo:

Template documentation
and downloads

And another site



No particular awareness of the weather is required.    There are no Weather-warnings

Pagina Historial Weather Underground text

Diari Resum Setembre 21, 2017 Unitats:  Imperial    Mètric   Tant
« Previous Dia
SegĂźent Dia »
Diari Setmana Mensual Anual Personalitzada
  Maxima: Minima: Media:
Temperatura: TemperatureC °F 13.0 °F 21.2 °F
Punt de rosada: DewpointC °F 8.6 °F 13.9 °F
Humitat: Humidity % 47 % 64 %
Wind Speed: WindSpeedKMH mph 0.0 mph 6.2 mph
RĂ fegues de vent: WindSpeedGustKMH mph - -
Vent:- - SSW
Pression baro: PressurehPa in 1014.8 in -
Precipitacions: 0.0 in    
Historical Graphs
 
 
Dades de taula per Setembre 21, 2017
Temps Temperatura Punt de rosada Pression baro Vent Wind Speed RĂ fegues de vent Humitat Rainfall Rate (Hourly)
TemperatureC °F DewpointC °F PressurehPa in Calm     Humidity % HourlyPrecipMM in
00:00 13.4 °F 8.7 °F 1017.8 in West 1.6 mph 3.2 mph 73 % 0.0 in
00:03 15.8 °F 8.6 °F 1017.8 in Calm     62 % 0.0 in
00:10 13.4 °F 8.8 °F 1017.8 in Calm     74 % 0.0 in
00:20 13.4 °F 8.8 °F 1017.8 in Calm     74 % 0.0 in
00:30 13.4 °F 8.8 °F 1017.8 in Calm     74 % 0.0 in
00:40 13.3 °F 8.8 °F 1017.8 in Calm   1.6 mph 74 % 0.0 in
00:50 13.3 °F 8.8 °F 1017.8 in WSW 1.6 mph 3.2 mph 74 % 0.0 in
01:00 13.4 °F 9.1 °F 1016.8 in WSW 1.6 mph 1.6 mph 75 % 0.0 in
01:10 13.5 °F 9.2 °F 1017.8 in Calm     75 % 0.0 in
01:20 13.4 °F 9.1 °F 1017.8 in Calm   3.2 mph 75 % 0.0 in
01:30 13.3 °F 8.9 °F 1017.8 in Calm     75 % 0.0 in
01:40 13.2 °F 8.9 °F 1017.8 in Calm   3.2 mph 75 % 0.0 in
01:50 13.2 °F 8.9 °F 1017.8 in Calm     75 % 0.0 in
02:00 13.0 °F 8.7 °F 1017.8 in WSW 1.6 mph 3.2 mph 75 % 0.0 in
02:10 13.0 °F 8.9 °F 1017.8 in Calm     76 % 0.0 in
02:20 13.0 °F 9.1 °F 1017.8 in Calm   1.6 mph 77 % 0.0 in
02:30 13.0 °F 8.9 °F 1017.8 in Calm   3.2 mph 76 % 0.0 in
02:40 13.1 °F 8.9 °F 1016.8 in Calm   1.6 mph 76 % 0.0 in
02:50 13.1 °F 9.2 °F 1016.8 in Calm   1.6 mph 77 % 0.0 in
03:00 13.0 °F 8.9 °F 1017.8 in NNE 1.6 mph 1.6 mph 76 % 0.0 in
03:10 13.2 °F 9.1 °F 1017.8 in Calm   3.2 mph 76 % 0.0 in
03:20 13.3 °F 9.2 °F 1017.8 in Calm     76 % 0.0 in
03:30 13.2 °F 9.1 °F 1017.8 in WNW 1.6 mph 3.2 mph 76 % 0.0 in
03:40 13.5 °F 9.6 °F 1017.8 in WSW 1.6 mph 1.6 mph 77 % 0.0 in
03:50 13.7 °F 9.7 °F 1017.8 in Calm   3.2 mph 77 % 0.0 in
04:00 13.7 °F 9.6 °F 1017.8 in SW 1.6 mph 3.2 mph 76 % 0.0 in
04:10 14.8 °F 10.8 °F 1018.8 in SW 1.6 mph 1.6 mph 77 % 0.0 in
04:20 15.4 °F 10.8 °F 1018.8 in Calm   4.8 mph 74 % 0.0 in
04:30 15.9 °F 10.7 °F 1018.8 in NNE 4.8 mph 4.8 mph 71 % 0.0 in
04:40 15.7 °F 10.2 °F 1018.8 in NNE 1.6 mph 1.6 mph 70 % 0.0 in
04:50 16.1 °F 10.4 °F 1018.8 in NW 1.6 mph 3.2 mph 69 % 0.0 in
05:00 16.9 °F 10.9 °F 1018.8 in NW 1.6 mph 3.2 mph 68 % 0.0 in
05:10 16.8 °F 10.6 °F 1018.8 in Calm   3.2 mph 67 % 0.0 in
05:20 17.0 °F 10.6 °F 1018.8 in South 1.6 mph 3.2 mph 66 % 0.0 in
05:30 18.3 °F 11.8 °F 1018.8 in ESE 1.6 mph 3.2 mph 66 % 0.0 in
05:40 18.2 °F 11.5 °F 1018.8 in Calm   4.8 mph 65 % 0.0 in
05:50 18.5 °F 11.3 °F 1018.8 in ENE 4.8 mph 4.8 mph 63 % 0.0 in
06:00 19.2 °F 11.7 °F 1018.8 in NE 3.2 mph 6.4 mph 62 % 0.0 in
06:10 19.0 °F 11.6 °F 1018.8 in ENE 1.6 mph 4.8 mph 62 % 0.0 in
11:18 19.8 °F 12.3 °F 1018.8 in ENE 3.7 mph 3.7 mph 62 % 0.0 in
11:19 19.8 °F 12.3 °F 1018.8 in ENE 3.7 mph 3.7 mph 62 % 0.0 in
11:24 19.9 °F 12.2 °F 1018.8 in NE 3.7 mph 4.2 mph 61 % 0.0 in
11:29 20.0 °F 12.0 °F 1018.8 in East 3.7 mph 3.7 mph 60 % 0.0 in
11:34 20.6 °F 12.6 °F 1018.8 in ESE 1.9 mph 1.9 mph 60 % 0.0 in
11:39 20.9 °F 12.8 °F 1018.8 in WSW 1.9 mph   60 % 0.0 in
11:44 21.2 °F 12.9 °F 1018.8 in SE 3.9 mph 3.9 mph 59 % 0.0 in
11:49 21.1 °F 12.8 °F 1018.8 in East 5.6 mph 5.6 mph 59 % 0.0 in
11:54 21.2 °F 12.6 °F 1018.8 in ESE 7.4 mph 7.4 mph 58 % 0.0 in
11:59 21.3 °F 13.2 °F 1018.8 in NNE 3.7 mph 3.7 mph 60 % 0.0 in
12:04 21.6 °F 13.8 °F 1018.8 in East 5.6 mph 5.6 mph 61 % 0.0 in
12:09 21.6 °F 13.8 °F 1018.8 in WNW 5.6 mph 5.6 mph 61 % 0.0 in
12:14 22.3 °F 14.2 °F 1018.8 in ESE 6.4 mph 6.4 mph 60 % 0.0 in
12:19 22.1 °F 13.9 °F 1017.8 in NE 9.3 mph 9.3 mph 60 % 0.0 in
12:24 22.4 °F 14.3 °F 1017.8 in ESE 9.3 mph 9.3 mph 60 % 0.0 in
12:29 22.4 °F 14.3 °F 1017.8 in South 9.3 mph 9.3 mph 60 % 0.0 in
12:34 22.6 °F 14.2 °F 1017.8 in SSE 5.6 mph 5.6 mph 59 % 0.0 in
12:39 22.7 °F 14.6 °F 1017.8 in NNE 5.6 mph 5.6 mph 60 % 0.0 in
12:44 23.3 °F 15.1 °F 1017.8 in ESE 6.1 mph 6.1 mph 60 % 0.0 in
12:49 22.9 °F 14.2 °F 1017.8 in SE 11.1 mph 11.1 mph 58 % 0.0 in
12:54 22.9 °F 14.4 °F 1017.8 in ENE 7.4 mph 7.4 mph 59 % 0.0 in
12:59 23.0 °F 14.6 °F 1017.8 in East 9.3 mph 9.3 mph 59 % 0.0 in
13:04 23.2 °F 14.5 °F 1016.8 in ESE 5.6 mph 5.6 mph 58 % 0.0 in
13:09 23.4 °F 14.9 °F 1016.8 in East 9.3 mph 9.3 mph 59 % 0.0 in
13:14 23.6 °F 14.8 °F 1016.8 in NNE 9.3 mph 9.3 mph 58 % 0.0 in
13:19 23.6 °F 14.8 °F 1017.8 in ESE 3.7 mph 3.7 mph 58 % 0.0 in
13:24 24.3 °F 15.2 °F 1017.8 in ESE 5.6 mph 5.6 mph 57 % 0.0 in
13:29 24.5 °F 15.2 °F 1017.8 in NE 7.4 mph 7.4 mph 56 % 0.0 in
13:34 24.2 °F 14.6 °F 1017.8 in SE 7.4 mph 7.4 mph 55 % 0.0 in
13:39 24.6 °F 14.9 °F 1017.8 in SSE 9.3 mph 9.3 mph 55 % 0.0 in
13:44 24.4 °F 14.8 °F 1017.8 in NW 9.3 mph 9.3 mph 55 % 0.0 in
13:49 24.6 °F 14.9 °F 1017.8 in SSE 7.4 mph 8.7 mph 55 % 0.0 in
13:54 25.1 °F 15.1 °F 1017.8 in SSW 7.4 mph 7.4 mph 54 % 0.0 in
13:59 25.6 °F 15.6 °F 1017.8 in SW 5.6 mph 5.6 mph 54 % 0.0 in
14:04 25.2 °F 15.2 °F 1017.8 in WSW 5.6 mph 5.6 mph 54 % 0.0 in
14:09 25.4 °F 15.4 °F 1017.8 in SW 13.0 mph 13.0 mph 54 % 0.0 in
14:14 26.1 °F 15.8 °F 1017.8 in SSE 4.2 mph 4.2 mph 53 % 0.0 in
14:19 26.2 °F 15.9 °F 1017.8 in SSE 3.7 mph   53 % 0.0 in
14:24 25.9 °F 15.6 °F 1017.8 in East 9.3 mph 9.3 mph 53 % 0.0 in
14:29 26.3 °F 15.7 °F 1017.8 in ESE 7.4 mph 7.4 mph 52 % 0.0 in
14:34 27.0 °F 15.7 °F 1016.8 in South 3.7 mph 3.7 mph 50 % 0.0 in
14:39 27.2 °F 15.9 °F 1016.8 in SW 9.3 mph 9.3 mph 50 % 0.0 in
14:44 26.7 °F 15.4 °F 1016.8 in SSW 14.8 mph 14.8 mph 50 % 0.0 in
14:49 26.9 °F 15.6 °F 1015.8 in SSW 9.3 mph 9.3 mph 50 % 0.0 in
14:54 27.0 °F 15.4 °F 1015.8 in WSW 13.0 mph 13.0 mph 49 % 0.0 in
14:59 26.6 °F 15.0 °F 1015.8 in SSW 9.3 mph 9.3 mph 49 % 0.0 in
15:04 26.9 °F 15.3 °F 1015.8 in West 9.3 mph 9.3 mph 49 % 0.0 in
15:09 27.3 °F 15.3 °F 1015.8 in SSW 9.3 mph 9.3 mph 48 % 0.0 in
15:14 27.5 °F 15.5 °F 1015.8 in SW 9.3 mph 9.3 mph 48 % 0.0 in
15:19 27.5 °F 15.2 °F 1015.8 in NNW 7.4 mph 7.4 mph 47 % 0.0 in
15:24 27.2 °F 15.2 °F 1015.8 in SW 13.0 mph 13.0 mph 48 % 0.0 in
15:29 27.0 °F 15.1 °F 1015.8 in SSW 3.7 mph 3.7 mph 48 % 0.0 in
15:34 26.9 °F 15.3 °F 1015.8 in South 5.6 mph 5.6 mph 49 % 0.0 in
15:39 27.0 °F 15.1 °F 1015.8 in WSW 4.7 mph 4.7 mph 48 % 0.0 in
15:44 27.2 °F 15.2 °F 1015.8 in SSW 9.3 mph 9.3 mph 48 % 0.0 in
15:49 27.0 °F 15.1 °F 1015.8 in SW 13.0 mph 13.0 mph 48 % 0.0 in
15:54 26.5 °F 14.9 °F 1015.8 in WSW 6.1 mph 6.1 mph 49 % 0.0 in
15:59 26.7 °F 15.1 °F 1015.8 in WSW 7.4 mph 7.4 mph 49 % 0.0 in
16:04 26.9 °F 15.6 °F 1015.8 in West 14.8 mph 14.8 mph 50 % 0.0 in
16:09 26.5 °F 15.2 °F 1015.8 in South 7.4 mph 7.4 mph 50 % 0.0 in
16:14 26.5 °F 15.2 °F 1015.8 in WSW 9.3 mph 9.3 mph 50 % 0.0 in
16:19 25.8 °F 14.6 °F 1015.8 in SE 9.3 mph 9.5 mph 50 % 0.0 in
16:24 26.0 °F 14.8 °F 1015.8 in South 14.8 mph 14.8 mph 50 % 0.0 in
16:29 25.5 °F 14.6 °F 1015.8 in SW 9.3 mph 9.3 mph 51 % 0.0 in
16:34 25.5 °F 14.6 °F 1015.8 in SSW 9.3 mph 9.3 mph 51 % 0.0 in
16:39 26.1 °F 15.2 °F 1015.8 in SW 7.4 mph 7.4 mph 51 % 0.0 in
16:44 26.2 °F 15.3 °F 1015.8 in SSW 9.3 mph 9.3 mph 51 % 0.0 in
16:49 25.6 °F 14.7 °F 1015.8 in SW 13.0 mph 13.0 mph 51 % 0.0 in
16:54 25.8 °F 14.9 °F 1015.8 in West 7.4 mph 7.4 mph 51 % 0.0 in
16:59 26.2 °F 15.3 °F 1015.8 in SSE 7.4 mph 7.4 mph 51 % 0.0 in
17:04 26.2 °F 15.3 °F 1015.8 in South 7.6 mph 7.6 mph 51 % 0.0 in
17:09 26.0 °F 15.1 °F 1015.8 in SSE 11.1 mph 11.1 mph 51 % 0.0 in
17:14 25.8 °F 14.9 °F 1015.8 in SW 13.0 mph 13.0 mph 51 % 0.0 in
17:19 25.5 °F 14.9 °F 1014.8 in SW 7.4 mph 7.4 mph 52 % 0.0 in
17:24 25.5 °F 14.9 °F 1014.8 in South 14.8 mph 14.8 mph 52 % 0.0 in
17:29 25.4 °F 14.8 °F 1014.8 in South 13.0 mph 13.0 mph 52 % 0.0 in
17:34 25.6 °F 15.0 °F 1015.8 in SSW 11.1 mph 11.1 mph 52 % 0.0 in
17:39 25.5 °F 15.2 °F 1015.8 in SSE 13.0 mph 13.0 mph 53 % 0.0 in
17:44 25.3 °F 15.1 °F 1015.8 in WSW 11.1 mph 11.1 mph 53 % 0.0 in
17:49 25.2 °F 14.9 °F 1015.8 in SSW 5.6 mph 5.6 mph 53 % 0.0 in
17:54 25.0 °F 14.8 °F 1015.8 in SSW 5.6 mph 5.6 mph 53 % 0.0 in
17:59 24.9 °F 15.2 °F 1015.8 in SSW 9.3 mph 9.3 mph 55 % 0.0 in
18:04 24.7 °F 15.1 °F 1014.8 in SSW 11.1 mph 11.1 mph 55 % 0.0 in
18:09 24.4 °F 15.1 °F 1014.8 in SSW 20.4 mph 20.4 mph 56 % 0.0 in
18:14 24.3 °F 14.9 °F 1014.8 in SW 9.3 mph 9.3 mph 56 % 0.0 in
18:19 24.3 °F 15.2 °F 1014.8 in SW 13.0 mph 13.0 mph 57 % 0.0 in
18:24 24.2 °F 15.2 °F 1014.8 in SW 7.4 mph 7.4 mph 57 % 0.0 in
18:29 24.1 °F 15.1 °F 1014.8 in SSE 14.8 mph 14.8 mph 57 % 0.0 in
18:34 24.2 °F 15.2 °F 1015.8 in SW 9.3 mph 9.3 mph 57 % 0.0 in
18:39 24.1 °F 15.3 °F 1015.8 in WNW 9.7 mph 9.7 mph 58 % 0.0 in
18:44 24.0 °F 15.2 °F 1015.8 in SW 13.0 mph 13.0 mph 58 % 0.0 in
18:49 23.7 °F 15.5 °F 1015.8 in WSW 13.7 mph 13.7 mph 60 % 0.0 in
18:54 23.5 °F 15.3 °F 1015.8 in SW 9.3 mph 9.3 mph 60 % 0.0 in
18:59 23.3 °F 15.1 °F 1015.8 in SSW 13.0 mph 13.0 mph 60 % 0.0 in
19:04 23.1 °F 15.2 °F 1015.8 in SW 9.5 mph 9.5 mph 61 % 0.0 in
19:05 23.1 °F 15.2 °F 1015.8 in SW 13.0 mph 13.0 mph 61 % 0.0 in
19:10 22.9 °F 15.2 °F 1015.8 in South 9.3 mph 9.3 mph 62 % 0.0 in
19:15 22.7 °F 15.3 °F 1015.8 in SW 9.3 mph 9.3 mph 63 % 0.0 in
19:20 22.5 °F 15.1 °F 1015.8 in SSW 11.1 mph 11.1 mph 63 % 0.0 in
19:25 22.5 °F 15.3 °F 1015.8 in SW 9.3 mph 9.3 mph 64 % 0.0 in
19:30 22.3 °F 15.2 °F 1015.8 in SW 9.3 mph 9.3 mph 64 % 0.0 in
19:35 22.2 °F 15.3 °F 1015.8 in SW 13.0 mph 13.0 mph 65 % 0.0 in
19:40 22.1 °F 15.2 °F 1015.8 in SW 9.3 mph 9.3 mph 65 % 0.0 in
19:45 22.0 °F 15.1 °F 1015.8 in South 13.0 mph 13.0 mph 65 % 0.0 in
19:50 21.9 °F 15.5 °F 1015.8 in SSW 9.3 mph 9.3 mph 67 % 0.0 in
19:55 21.7 °F 15.6 °F 1015.8 in SSE 13.0 mph 13.0 mph 68 % 0.0 in
20:00 21.6 °F 15.4 °F 1015.8 in WSW 7.4 mph 7.4 mph 68 % 0.0 in
20:05 21.5 °F 15.6 °F 1016.8 in SSW 11.1 mph 11.1 mph 69 % 0.0 in
20:10 21.4 °F 15.7 °F 1016.8 in SSW 9.3 mph 9.3 mph 70 % 0.0 in
20:15 21.3 °F 15.6 °F 1016.8 in WSW 9.7 mph 9.7 mph 70 % 0.0 in
20:20 21.2 °F 15.5 °F 1016.8 in SW 9.3 mph 9.3 mph 70 % 0.0 in
20:25 21.1 °F 15.6 °F 1016.8 in WSW 9.3 mph 9.3 mph 71 % 0.0 in
20:30 21.0 °F 15.6 °F 1016.8 in SSW 9.0 mph 9.0 mph 71 % 0.0 in
20:35 20.9 °F 15.4 °F 1017.8 in WSW 9.3 mph 9.3 mph 71 % 0.0 in
20:40 20.8 °F 15.6 °F 1017.8 in West 11.1 mph 11.1 mph 72 % 0.0 in
20:45 20.8 °F 15.6 °F 1017.8 in SW 9.3 mph 9.3 mph 72 % 0.0 in
20:50 20.7 °F 15.4 °F 1017.8 in SSW 13.0 mph 13.0 mph 72 % 0.0 in
20:55 20.6 °F 15.6 °F 1017.8 in WSW 7.4 mph 7.4 mph 73 % 0.0 in
21:00 20.5 °F 15.5 °F 1017.8 in SW 5.6 mph 5.6 mph 73 % 0.0 in
21:05 20.4 °F 15.4 °F 1017.8 in SW 9.3 mph 9.3 mph 73 % 0.0 in
21:10 20.4 °F 15.4 °F 1017.8 in SW 11.1 mph 11.1 mph 73 % 0.0 in
21:15 20.3 °F 15.5 °F 1017.8 in SW 9.3 mph 9.3 mph 74 % 0.0 in
21:20 20.3 °F 15.5 °F 1017.8 in SW 5.6 mph 5.6 mph 74 % 0.0 in
21:25 20.2 °F 15.4 °F 1017.8 in SW 6.1 mph 6.1 mph 74 % 0.0 in
21:30 20.2 °F 15.6 °F 1017.8 in SW 9.3 mph 9.3 mph 75 % 0.0 in
21:35 20.1 °F 15.6 °F 1017.8 in SW 7.4 mph 7.4 mph 75 % 0.0 in
21:40 20.1 °F 15.6 °F 1017.8 in SW 5.6 mph 5.6 mph 75 % 0.0 in
21:45 20.0 °F 15.7 °F 1017.8 in WSW 5.6 mph 5.6 mph 76 % 0.0 in
21:50 20.0 °F 15.7 °F 1017.8 in SSW 5.6 mph 5.6 mph 76 % 0.0 in
21:55 19.9 °F 15.6 °F 1017.8 in SW 4.7 mph 4.7 mph 76 % 0.0 in
22:00 19.9 °F 15.7 °F 1017.8 in WSW 3.9 mph 3.9 mph 77 % 0.0 in
22:05 19.9 °F 15.7 °F 1017.8 in SW 3.7 mph 3.7 mph 77 % 0.0 in
22:10 19.8 °F 15.7 °F 1017.8 in SW 3.7 mph 3.7 mph 77 % 0.0 in
22:15 19.8 °F 15.7 °F 1017.8 in West 3.2 mph   77 % 0.0 in
22:20 19.8 °F 15.7 °F 1017.8 in WSW 1.9 mph 1.9 mph 77 % 0.0 in
22:25 19.8 °F 15.7 °F 1017.8 in WNW 3.7 mph 3.7 mph 77 % 0.0 in
22:30 19.8 °F 15.7 °F 1017.8 in West 3.7 mph 3.7 mph 77 % 0.0 in
22:35 19.8 °F 15.7 °F 1017.8 in West 1.9 mph 1.9 mph 77 % 0.0 in
22:40 19.8 °F 15.8 °F 1017.8 in Calm     78 % 0.0 in
22:45 19.7 °F 15.8 °F 1017.8 in WSW 1.9 mph   78 % 0.0 in
22:50 19.6 °F 15.7 °F 1018.8 in Calm     78 % 0.0 in
22:55 19.6 °F 15.7 °F 1018.8 in Calm     78 % 0.0 in
23:00 19.6 °F 15.7 °F 1018.8 in WSW 3.7 mph 3.7 mph 78 % 0.0 in
23:05 19.6 °F 15.7 °F 1017.8 in WSW 1.9 mph 1.9 mph 78 % 0.0 in
23:10 19.5 °F 15.8 °F 1017.8 in Calm     79 % 0.0 in
23:15 19.4 °F 15.7 °F 1017.8 in Calm     79 % 0.0 in
23:20 19.3 °F 15.6 °F 1018.8 in Calm     79 % 0.0 in
23:25 19.3 °F 15.6 °F 1018.8 in Calm     79 % 0.0 in
23:30 19.2 °F 15.4 °F 1018.8 in Calm     79 % 0.0 in
23:35 19.2 °F 15.4 °F 1018.8 in Calm     79 % 0.0 in
23:40 19.2 °F 15.4 °F 1018.8 in Calm     79 % 0.0 in
23:45 19.1 °F 15.6 °F 1018.8 in Calm     80 % 0.0 in
23:50 19.1 °F 15.6 °F 1018.8 in Calm     80 % 0.0 in
23:55 19.0 °F 15.7 °F 1018.8 in Calm     81 % 0.0 in
Meteo Sesrovires
Elogis d' Weather Underground - 3.5 mb

Guio original per  Jim McMurry - jmcmurry@mwt.net Adaptat per a la plantilla per  Wim van der Kuil - Leuven-Template.eu

Trobareu la nostra informacio del temps tambe a:

Weather Underground

AWEKAS